sensor_id;sensor_type;location;lat;lon;timestamp;P1;durP1;ratioP1;P2;durP2;ratioP2
51660;SDS011;37741;49.748;8.490;2022-09-17T00:00:35;1.90;;;0.57;;
51660;SDS011;37741;49.748;8.490;2022-09-17T00:03:02;1.08;;;0.40;;
51660;SDS011;37741;49.748;8.490;2022-09-17T00:05:28;1.10;;;0.43;;
51660;SDS011;37741;49.748;8.490;2022-09-17T00:07:54;1.70;;;0.52;;
51660;SDS011;37741;49.748;8.490;2022-09-17T00:10:19;2.65;;;0.70;;
51660;SDS011;37741;49.748;8.490;2022-09-17T00:12:47;1.83;;;0.50;;
51660;SDS011;37741;49.748;8.490;2022-09-17T00:15:12;1.13;;;0.50;;
51660;SDS011;37741;49.748;8.490;2022-09-17T00:17:39;1.42;;;0.47;;
51660;SDS011;37741;49.748;8.490;2022-09-17T00:20:05;1.73;;;0.50;;
51660;SDS011;37741;49.748;8.490;2022-09-17T00:22:36;1.67;;;0.47;;
51660;SDS011;37741;49.748;8.490;2022-09-17T00:25:03;8.40;;;1.05;;
51660;SDS011;37741;49.748;8.490;2022-09-17T00:27:30;3.13;;;0.55;;
51660;SDS011;37741;49.748;8.490;2022-09-17T00:29:56;1.92;;;0.47;;
51660;SDS011;37741;49.748;8.490;2022-09-17T00:32:22;1.30;;;0.40;;
51660;SDS011;37741;49.748;8.490;2022-09-17T00:34:48;2.53;;;0.68;;
51660;SDS011;37741;49.748;8.490;2022-09-17T00:37:16;1.33;;;0.38;;
51660;SDS011;37741;49.748;8.490;2022-09-17T00:39:42;0.90;;;0.50;;
51660;SDS011;37741;49.748;8.490;2022-09-17T00:42:09;1.35;;;0.70;;
51660;SDS011;37741;49.748;8.490;2022-09-17T00:44:41;1.77;;;1.15;;
51660;SDS011;37741;49.748;8.490;2022-09-17T00:50:03;1.60;;;0.60;;
51660;SDS011;37741;49.748;8.490;2022-09-17T00:52:40;2.80;;;0.85;;
51660;SDS011;37741;49.748;8.490;2022-09-17T00:55:15;1.98;;;0.75;;
51660;SDS011;37741;49.748;8.490;2022-09-17T00:57:45;2.63;;;0.50;;
51660;SDS011;37741;49.748;8.490;2022-09-17T01:00:13;2.67;;;0.50;;
51660;SDS011;37741;49.748;8.490;2022-09-17T01:02:39;2.28;;;0.70;;
51660;SDS011;37741;49.748;8.490;2022-09-17T01:05:06;2.22;;;0.60;;
51660;SDS011;37741;49.748;8.490;2022-09-17T01:10:05;1.08;;;0.30;;
51660;SDS011;37741;49.748;8.490;2022-09-17T01:15:31;2.88;;;0.73;;
51660;SDS011;37741;49.748;8.490;2022-09-17T01:18:21;2.05;;;0.63;;
51660;SDS011;37741;49.748;8.490;2022-09-17T01:36:55;1.48;;;0.60;;
51660;SDS011;37741;49.748;8.490;2022-09-17T01:45:08;1.85;;;0.77;;
51660;SDS011;37741;49.748;8.490;2022-09-17T01:47:33;3.17;;;0.50;;
51660;SDS011;37741;49.748;8.490;2022-09-17T01:50:10;2.28;;;0.80;;
51660;SDS011;37741;49.748;8.490;2022-09-17T01:52:41;1.63;;;0.52;;
51660;SDS011;37741;49.748;8.490;2022-09-17T01:55:11;1.75;;;0.47;;
51660;SDS011;37741;49.748;8.490;2022-09-17T01:57:46;2.42;;;0.57;;
51660;SDS011;37741;49.748;8.490;2022-09-17T02:00:20;5.78;;;0.80;;
51660;SDS011;37741;49.748;8.490;2022-09-17T02:02:52;2.75;;;0.63;;
51660;SDS011;37741;49.748;8.490;2022-09-17T02:08:22;2.22;;;0.52;;
51660;SDS011;37741;49.748;8.490;2022-09-17T02:11:11;1.88;;;0.93;;
51660;SDS011;37741;49.748;8.490;2022-09-17T02:16:36;2.17;;;0.77;;
51660;SDS011;37741;49.748;8.490;2022-09-17T02:21:45;1.08;;;0.40;;
51660;SDS011;37741;49.748;8.490;2022-09-17T02:30:07;2.38;;;0.70;;
51660;SDS011;37741;49.748;8.490;2022-09-17T02:32:33;2.35;;;0.82;;
51660;SDS011;37741;49.748;8.490;2022-09-17T02:34:58;2.83;;;0.88;;
51660;SDS011;37741;49.748;8.490;2022-09-17T02:37:24;1.00;;;0.40;;
51660;SDS011;37741;49.748;8.490;2022-09-17T02:39:51;2.20;;;1.08;;
51660;SDS011;37741;49.748;8.490;2022-09-17T02:45:05;1.63;;;0.65;;
51660;SDS011;37741;49.748;8.490;2022-09-17T02:53:38;3.90;;;0.82;;
51660;SDS011;37741;49.748;8.490;2022-09-17T03:04:02;2.92;;;0.70;;
51660;SDS011;37741;49.748;8.490;2022-09-17T03:06:31;3.63;;;0.80;;
51660;SDS011;37741;49.748;8.490;2022-09-17T03:08:56;2.22;;;0.70;;
51660;SDS011;37741;49.748;8.490;2022-09-17T03:11:22;4.13;;;0.60;;
51660;SDS011;37741;49.748;8.490;2022-09-17T03:13:48;1.88;;;0.65;;
51660;SDS011;37741;49.748;8.490;2022-09-17T03:16:14;1.42;;;0.45;;
51660;SDS011;37741;49.748;8.490;2022-09-17T03:18:39;2.50;;;0.75;;
51660;SDS011;37741;49.748;8.490;2022-09-17T03:21:05;2.40;;;0.77;;
51660;SDS011;37741;49.748;8.490;2022-09-17T03:23:31;2.03;;;0.70;;
51660;SDS011;37741;49.748;8.490;2022-09-17T03:25:56;2.90;;;0.68;;
51660;SDS011;37741;49.748;8.490;2022-09-17T03:28:22;3.45;;;0.70;;
51660;SDS011;37741;49.748;8.490;2022-09-17T03:30:50;2.65;;;1.10;;
51660;SDS011;37741;49.748;8.490;2022-09-17T03:33:16;2.40;;;0.73;;
51660;SDS011;37741;49.748;8.490;2022-09-17T03:35:42;2.83;;;0.90;;
51660;SDS011;37741;49.748;8.490;2022-09-17T03:38:08;2.42;;;0.63;;
51660;SDS011;37741;49.748;8.490;2022-09-17T03:40:34;1.80;;;0.68;;
51660;SDS011;37741;49.748;8.490;2022-09-17T03:42:59;2.67;;;0.80;;
51660;SDS011;37741;49.748;8.490;2022-09-17T03:45:25;3.58;;;0.93;;
51660;SDS011;37741;49.748;8.490;2022-09-17T03:47:50;3.72;;;1.48;;
51660;SDS011;37741;49.748;8.490;2022-09-17T03:50:16;2.47;;;0.80;;
51660;SDS011;37741;49.748;8.490;2022-09-17T03:52:42;3.00;;;0.80;;
51660;SDS011;37741;49.748;8.490;2022-09-17T03:55:08;2.42;;;0.60;;
51660;SDS011;37741;49.748;8.490;2022-09-17T03:57:35;2.45;;;0.68;;
51660;SDS011;37741;49.748;8.490;2022-09-17T04:00:01;2.65;;;0.85;;
51660;SDS011;37741;49.748;8.490;2022-09-17T04:02:27;2.15;;;0.75;;
51660;SDS011;37741;49.748;8.490;2022-09-17T04:04:53;4.22;;;1.00;;
51660;SDS011;37741;49.748;8.490;2022-09-17T04:07:18;1.73;;;0.70;;
51660;SDS011;37741;49.748;8.490;2022-09-17T04:09:44;2.47;;;0.68;;
51660;SDS011;37741;49.748;8.490;2022-09-17T04:12:09;3.10;;;0.70;;
51660;SDS011;37741;49.748;8.490;2022-09-17T04:14:35;2.20;;;0.80;;
51660;SDS011;37741;49.748;8.490;2022-09-17T04:17:00;2.45;;;1.27;;
51660;SDS011;37741;49.748;8.490;2022-09-17T04:19:26;4.03;;;0.98;;
51660;SDS011;37741;49.748;8.490;2022-09-17T04:21:51;2.53;;;0.82;;
51660;SDS011;37741;49.748;8.490;2022-09-17T04:24:17;2.83;;;0.85;;
51660;SDS011;37741;49.748;8.490;2022-09-17T04:26:43;3.85;;;0.88;;
51660;SDS011;37741;49.748;8.490;2022-09-17T04:29:08;2.75;;;0.80;;
51660;SDS011;37741;49.748;8.490;2022-09-17T04:31:34;2.42;;;0.85;;
51660;SDS011;37741;49.748;8.490;2022-09-17T04:34:00;2.22;;;0.68;;
51660;SDS011;37741;49.748;8.490;2022-09-17T04:36:25;3.58;;;0.95;;
51660;SDS011;37741;49.748;8.490;2022-09-17T04:38:51;2.72;;;1.17;;
51660;SDS011;37741;49.748;8.490;2022-09-17T04:41:16;2.67;;;0.43;;
51660;SDS011;37741;49.748;8.490;2022-09-17T04:43:42;4.15;;;0.95;;
51660;SDS011;37741;49.748;8.490;2022-09-17T04:46:08;2.28;;;0.68;;
51660;SDS011;37741;49.748;8.490;2022-09-17T04:48:33;3.33;;;0.80;;
51660;SDS011;37741;49.748;8.490;2022-09-17T04:50:59;2.70;;;1.20;;
51660;SDS011;37741;49.748;8.490;2022-09-17T04:53:24;2.85;;;0.68;;
51660;SDS011;37741;49.748;8.490;2022-09-17T04:55:50;1.90;;;0.65;;
51660;SDS011;37741;49.748;8.490;2022-09-17T04:58:16;2.92;;;0.75;;
51660;SDS011;37741;49.748;8.490;2022-09-17T05:00:41;2.30;;;0.60;;
51660;SDS011;37741;49.748;8.490;2022-09-17T05:03:07;2.65;;;0.70;;
51660;SDS011;37741;49.748;8.490;2022-09-17T05:05:33;2.95;;;0.80;;
51660;SDS011;37741;49.748;8.490;2022-09-17T05:07:58;3.63;;;0.60;;
51660;SDS011;37741;49.748;8.490;2022-09-17T05:10:24;1.58;;;0.50;;
51660;SDS011;37741;49.748;8.490;2022-09-17T05:12:51;2.65;;;1.02;;
51660;SDS011;37741;49.748;8.490;2022-09-17T05:15:18;3.10;;;0.98;;
51660;SDS011;37741;49.748;8.490;2022-09-17T05:17:44;2.58;;;0.88;;
51660;SDS011;37741;49.748;8.490;2022-09-17T05:20:10;1.75;;;1.02;;
51660;SDS011;37741;49.748;8.490;2022-09-17T05:22:40;3.20;;;0.77;;
51660;SDS011;37741;49.748;8.490;2022-09-17T05:25:07;3.15;;;0.70;;
51660;SDS011;37741;49.748;8.490;2022-09-17T05:27:32;2.97;;;1.38;;
51660;SDS011;37741;49.748;8.490;2022-09-17T05:29:58;4.63;;;0.70;;
51660;SDS011;37741;49.748;8.490;2022-09-17T05:32:23;4.95;;;0.90;;
51660;SDS011;37741;49.748;8.490;2022-09-17T05:34:49;1.92;;;0.65;;
51660;SDS011;37741;49.748;8.490;2022-09-17T05:37:15;3.00;;;0.80;;
51660;SDS011;37741;49.748;8.490;2022-09-17T05:39:40;3.13;;;0.70;;
51660;SDS011;37741;49.748;8.490;2022-09-17T05:42:06;4.78;;;0.75;;
51660;SDS011;37741;49.748;8.490;2022-09-17T05:44:31;2.47;;;0.82;;
51660;SDS011;37741;49.748;8.490;2022-09-17T05:46:57;3.65;;;1.00;;
51660;SDS011;37741;49.748;8.490;2022-09-17T05:49:23;1.58;;;0.52;;
51660;SDS011;37741;49.748;8.490;2022-09-17T05:51:49;1.15;;;0.60;;
51660;SDS011;37741;49.748;8.490;2022-09-17T05:54:15;5.65;;;1.00;;
51660;SDS011;37741;49.748;8.490;2022-09-17T05:56:41;3.05;;;0.63;;
51660;SDS011;37741;49.748;8.490;2022-09-17T05:59:07;1.85;;;0.73;;
51660;SDS011;37741;49.748;8.490;2022-09-17T06:01:32;5.72;;;1.38;;
51660;SDS011;37741;49.748;8.490;2022-09-17T06:03:58;4.15;;;0.90;;
51660;SDS011;37741;49.748;8.490;2022-09-17T06:06:27;3.13;;;0.80;;
51660;SDS011;37741;49.748;8.490;2022-09-17T06:08:59;3.17;;;0.88;;
51660;SDS011;37741;49.748;8.490;2022-09-17T06:11:25;1.58;;;0.68;;
51660;SDS011;37741;49.748;8.490;2022-09-17T06:13:54;3.40;;;0.80;;
51660;SDS011;37741;49.748;8.490;2022-09-17T06:16:20;2.88;;;0.80;;
51660;SDS011;37741;49.748;8.490;2022-09-17T06:18:47;2.80;;;0.80;;
51660;SDS011;37741;49.748;8.490;2022-09-17T06:21:14;2.38;;;0.93;;
51660;SDS011;37741;49.748;8.490;2022-09-17T06:23:41;2.47;;;0.80;;
51660;SDS011;37741;49.748;8.490;2022-09-17T06:26:07;2.20;;;0.70;;
51660;SDS011;37741;49.748;8.490;2022-09-17T06:28:36;3.22;;;1.13;;
51660;SDS011;37741;49.748;8.490;2022-09-17T06:31:02;3.72;;;0.80;;
51660;SDS011;37741;49.748;8.490;2022-09-17T06:33:29;2.38;;;0.70;;
51660;SDS011;37741;49.748;8.490;2022-09-17T06:35:59;2.83;;;0.82;;
51660;SDS011;37741;49.748;8.490;2022-09-17T06:38:28;3.55;;;0.98;;
51660;SDS011;37741;49.748;8.490;2022-09-17T06:40:54;2.78;;;0.93;;
51660;SDS011;37741;49.748;8.490;2022-09-17T06:43:20;4.03;;;1.10;;
51660;SDS011;37741;49.748;8.490;2022-09-17T06:45:54;2.00;;;0.98;;
51660;SDS011;37741;49.748;8.490;2022-09-17T06:48:23;2.90;;;0.88;;
51660;SDS011;37741;49.748;8.490;2022-09-17T06:50:50;2.03;;;0.85;;
51660;SDS011;37741;49.748;8.490;2022-09-17T06:53:18;4.35;;;1.02;;
51660;SDS011;37741;49.748;8.490;2022-09-17T06:55:44;2.55;;;0.75;;
51660;SDS011;37741;49.748;8.490;2022-09-17T06:58:10;3.40;;;0.85;;
51660;SDS011;37741;49.748;8.490;2022-09-17T07:00:36;2.58;;;0.63;;
51660;SDS011;37741;49.748;8.490;2022-09-17T07:03:02;2.80;;;0.80;;
51660;SDS011;37741;49.748;8.490;2022-09-17T07:05:28;3.45;;;0.98;;
51660;SDS011;37741;49.748;8.490;2022-09-17T07:07:56;6.63;;;1.15;;
51660;SDS011;37741;49.748;8.490;2022-09-17T07:10:24;3.42;;;1.00;;
51660;SDS011;37741;49.748;8.490;2022-09-17T07:12:50;4.30;;;0.93;;
51660;SDS011;37741;49.748;8.490;2022-09-17T07:15:16;4.43;;;1.45;;
51660;SDS011;37741;49.748;8.490;2022-09-17T07:17:42;3.60;;;1.45;;
51660;SDS011;37741;49.748;8.490;2022-09-17T07:20:08;2.55;;;1.10;;
51660;SDS011;37741;49.748;8.490;2022-09-17T07:22:34;4.38;;;1.35;;
51660;SDS011;37741;49.748;8.490;2022-09-17T07:25:00;6.22;;;1.70;;
51660;SDS011;37741;49.748;8.490;2022-09-17T07:27:26;3.55;;;1.52;;
51660;SDS011;37741;49.748;8.490;2022-09-17T07:29:53;4.43;;;1.27;;
51660;SDS011;37741;49.748;8.490;2022-09-17T07:32:19;3.60;;;1.02;;
51660;SDS011;37741;49.748;8.490;2022-09-17T07:34:45;4.00;;;0.93;;
51660;SDS011;37741;49.748;8.490;2022-09-17T07:37:12;4.55;;;1.20;;
51660;SDS011;37741;49.748;8.490;2022-09-17T07:39:38;4.85;;;1.73;;
51660;SDS011;37741;49.748;8.490;2022-09-17T07:42:04;5.32;;;1.73;;
51660;SDS011;37741;49.748;8.490;2022-09-17T07:44:30;6.80;;;1.95;;
51660;SDS011;37741;49.748;8.490;2022-09-17T07:46:56;4.47;;;1.52;;
51660;SDS011;37741;49.748;8.490;2022-09-17T07:49:22;5.13;;;1.58;;
51660;SDS011;37741;49.748;8.490;2022-09-17T07:51:47;5.38;;;1.58;;
51660;SDS011;37741;49.748;8.490;2022-09-17T07:54:13;3.03;;;1.40;;
51660;SDS011;37741;49.748;8.490;2022-09-17T07:56:39;6.22;;;1.60;;
51660;SDS011;37741;49.748;8.490;2022-09-17T07:59:04;5.63;;;1.98;;
51660;SDS011;37741;49.748;8.490;2022-09-17T08:01:30;4.53;;;1.60;;
51660;SDS011;37741;49.748;8.490;2022-09-17T08:04:00;5.00;;;1.58;;
51660;SDS011;37741;49.748;8.490;2022-09-17T08:06:26;5.30;;;2.00;;
51660;SDS011;37741;49.748;8.490;2022-09-17T08:08:56;2.92;;;1.20;;
51660;SDS011;37741;49.748;8.490;2022-09-17T08:11:24;6.53;;;1.40;;
51660;SDS011;37741;49.748;8.490;2022-09-17T08:13:51;7.00;;;2.13;;
51660;SDS011;37741;49.748;8.490;2022-09-17T08:16:18;6.72;;;1.75;;
51660;SDS011;37741;49.748;8.490;2022-09-17T08:18:45;7.47;;;3.00;;
51660;SDS011;37741;49.748;8.490;2022-09-17T08:21:12;6.68;;;1.52;;
51660;SDS011;37741;49.748;8.490;2022-09-17T08:23:39;7.35;;;1.73;;
51660;SDS011;37741;49.748;8.490;2022-09-17T08:26:07;6.13;;;1.40;;
51660;SDS011;37741;49.748;8.490;2022-09-17T08:28:36;7.90;;;1.58;;
51660;SDS011;37741;49.748;8.490;2022-09-17T08:31:06;5.95;;;2.30;;
51660;SDS011;37741;49.748;8.490;2022-09-17T08:33:36;6.30;;;2.45;;
51660;SDS011;37741;49.748;8.490;2022-09-17T08:36:04;4.85;;;1.27;;
51660;SDS011;37741;49.748;8.490;2022-09-17T08:38:31;3.75;;;1.25;;
51660;SDS011;37741;49.748;8.490;2022-09-17T08:54:44;4.13;;;1.40;;
51660;SDS011;37741;49.748;8.490;2022-09-17T08:57:28;4.53;;;1.40;;
51660;SDS011;37741;49.748;8.490;2022-09-17T09:00:11;5.85;;;1.38;;
51660;SDS011;37741;49.748;8.490;2022-09-17T09:02:54;4.13;;;1.30;;
51660;SDS011;37741;49.748;8.490;2022-09-17T09:05:57;5.10;;;1.23;;
51660;SDS011;37741;49.748;8.490;2022-09-17T09:08:30;3.20;;;0.98;;
51660;SDS011;37741;49.748;8.490;2022-09-17T09:11:02;8.65;;;1.38;;
51660;SDS011;37741;49.748;8.490;2022-09-17T09:13:38;4.65;;;1.73;;
51660;SDS011;37741;49.748;8.490;2022-09-17T09:16:13;3.55;;;1.17;;
51660;SDS011;37741;49.748;8.490;2022-09-17T09:18:48;4.32;;;1.15;;
51660;SDS011;37741;49.748;8.490;2022-09-17T09:21:27;6.43;;;3.22;;
51660;SDS011;37741;49.748;8.490;2022-09-17T09:37:53;3.92;;;1.35;;
51660;SDS011;37741;49.748;8.490;2022-09-17T09:42:52;3.78;;;0.98;;
51660;SDS011;37741;49.748;8.490;2022-09-17T09:48:06;6.50;;;1.38;;
51660;SDS011;37741;49.748;8.490;2022-09-17T09:51:01;5.13;;;1.35;;
51660;SDS011;37741;49.748;8.490;2022-09-17T09:59:00;6.50;;;1.80;;
51660;SDS011;37741;49.748;8.490;2022-09-17T10:01:30;4.40;;;1.35;;
51660;SDS011;37741;49.748;8.490;2022-09-17T10:03:58;5.45;;;1.55;;
51660;SDS011;37741;49.748;8.490;2022-09-17T10:06:23;5.07;;;1.23;;
51660;SDS011;37741;49.748;8.490;2022-09-17T10:11:20;4.63;;;1.83;;
51660;SDS011;37741;49.748;8.490;2022-09-17T10:13:46;4.55;;;1.00;;
51660;SDS011;37741;49.748;8.490;2022-09-17T10:16:25;4.72;;;1.20;;
51660;SDS011;37741;49.748;8.490;2022-09-17T10:21:29;3.85;;;1.10;;
51660;SDS011;37741;49.748;8.490;2022-09-17T10:23:59;5.35;;;1.45;;
51660;SDS011;37741;49.748;8.490;2022-09-17T10:26:30;4.28;;;1.10;;
51660;SDS011;37741;49.748;8.490;2022-09-17T10:28:59;5.25;;;1.27;;
51660;SDS011;37741;49.748;8.490;2022-09-17T10:31:50;4.78;;;1.23;;
51660;SDS011;37741;49.748;8.490;2022-09-17T10:34:19;5.28;;;1.27;;
51660;SDS011;37741;49.748;8.490;2022-09-17T10:36:49;8.07;;;1.10;;
51660;SDS011;37741;49.748;8.490;2022-09-17T10:44:36;3.67;;;1.38;;
51660;SDS011;37741;49.748;8.490;2022-09-17T10:49:45;2.38;;;0.80;;
51660;SDS011;37741;49.748;8.490;2022-09-17T10:52:20;2.78;;;0.98;;
51660;SDS011;37741;49.748;8.490;2022-09-17T11:03:23;4.32;;;1.10;;
51660;SDS011;37741;49.748;8.490;2022-09-17T11:06:06;4.78;;;0.80;;
51660;SDS011;37741;49.748;8.490;2022-09-17T11:20:17;4.80;;;0.75;;
51660;SDS011;37741;49.748;8.490;2022-09-17T11:28:36;4.22;;;0.85;;
51660;SDS011;37741;49.748;8.490;2022-09-17T11:34:27;5.72;;;1.00;;
51660;SDS011;37741;49.748;8.490;2022-09-17T11:45:04;2.50;;;0.70;;
51660;SDS011;37741;49.748;8.490;2022-09-17T11:47:40;4.45;;;1.33;;
51660;SDS011;37741;49.748;8.490;2022-09-17T11:50:21;4.13;;;1.48;;
51660;SDS011;37741;49.748;8.490;2022-09-17T11:52:59;3.03;;;0.85;;
51660;SDS011;37741;49.748;8.490;2022-09-17T11:55:36;2.75;;;0.85;;
51660;SDS011;37741;49.748;8.490;2022-09-17T11:58:14;2.78;;;0.70;;
51660;SDS011;37741;49.748;8.490;2022-09-17T12:00:51;3.97;;;0.93;;
51660;SDS011;37741;49.748;8.490;2022-09-17T12:03:31;3.22;;;0.80;;
51660;SDS011;37741;49.748;8.490;2022-09-17T12:06:04;3.97;;;1.48;;
51660;SDS011;37741;49.748;8.490;2022-09-17T12:08:50;3.42;;;0.95;;
51660;SDS011;37741;49.748;8.490;2022-09-17T12:14:12;6.68;;;0.98;;
51660;SDS011;37741;49.748;8.490;2022-09-17T12:16:59;4.65;;;1.00;;
51660;SDS011;37741;49.748;8.490;2022-09-17T12:19:33;3.85;;;0.98;;
51660;SDS011;37741;49.748;8.490;2022-09-17T12:24:29;6.10;;;0.70;;
51660;SDS011;37741;49.748;8.490;2022-09-17T12:35:16;3.67;;;0.75;;
51660;SDS011;37741;49.748;8.490;2022-09-17T12:43:17;4.65;;;1.05;;
51660;SDS011;37741;49.748;8.490;2022-09-17T12:51:49;3.08;;;1.00;;
51660;SDS011;37741;49.748;8.490;2022-09-17T12:59:49;3.25;;;0.80;;
51660;SDS011;37741;49.748;8.490;2022-09-17T13:08:49;3.35;;;1.17;;
51660;SDS011;37741;49.748;8.490;2022-09-17T13:11:45;3.35;;;0.98;;
51660;SDS011;37741;49.748;8.490;2022-09-17T13:20:12;3.40;;;0.80;;
51660;SDS011;37741;49.748;8.490;2022-09-17T13:22:52;4.18;;;1.20;;
51660;SDS011;37741;49.748;8.490;2022-09-17T13:25:21;4.63;;;0.75;;
51660;SDS011;37741;49.748;8.490;2022-09-17T13:27:47;2.33;;;0.60;;
51660;SDS011;37741;49.748;8.490;2022-09-17T13:30:14;1.85;;;0.50;;
51660;SDS011;37741;49.748;8.490;2022-09-17T13:32:46;4.28;;;0.70;;
51660;SDS011;37741;49.748;8.490;2022-09-17T13:42:53;6.93;;;1.30;;
51660;SDS011;37741;49.748;8.490;2022-09-17T13:45:31;2.60;;;0.80;;
51660;SDS011;37741;49.748;8.490;2022-09-17T13:48:07;4.20;;;0.90;;
51660;SDS011;37741;49.748;8.490;2022-09-17T13:50:41;1.95;;;0.52;;
51660;SDS011;37741;49.748;8.490;2022-09-17T13:58:27;4.57;;;1.58;;
51660;SDS011;37741;49.748;8.490;2022-09-17T14:16:33;1.90;;;0.68;;
51660;SDS011;37741;49.748;8.490;2022-09-17T14:24:31;2.13;;;0.70;;
51660;SDS011;37741;49.748;8.490;2022-09-17T14:32:17;3.20;;;0.70;;
51660;SDS011;37741;49.748;8.490;2022-09-17T14:34:48;1.67;;;0.50;;
51660;SDS011;37741;49.748;8.490;2022-09-17T14:37:15;0.85;;;0.50;;
51660;SDS011;37741;49.748;8.490;2022-09-17T14:39:44;1.50;;;0.50;;
51660;SDS011;37741;49.748;8.490;2022-09-17T14:42:12;2.72;;;0.70;;
51660;SDS011;37741;49.748;8.490;2022-09-17T14:44:46;1.40;;;0.50;;
51660;SDS011;37741;49.748;8.490;2022-09-17T14:47:20;1.45;;;0.50;;
51660;SDS011;37741;49.748;8.490;2022-09-17T14:49:46;1.27;;;0.30;;
51660;SDS011;37741;49.748;8.490;2022-09-17T14:52:23;1.15;;;0.40;;
51660;SDS011;37741;49.748;8.490;2022-09-17T14:57:47;1.00;;;0.32;;
51660;SDS011;37741;49.748;8.490;2022-09-17T15:00:17;2.95;;;0.32;;
51660;SDS011;37741;49.748;8.490;2022-09-17T15:02:48;1.38;;;0.50;;
51660;SDS011;37741;49.748;8.490;2022-09-17T15:07:46;2.50;;;0.85;;
51660;SDS011;37741;49.748;8.490;2022-09-17T15:10:14;1.75;;;0.30;;
51660;SDS011;37741;49.748;8.490;2022-09-17T15:12:43;2.10;;;0.45;;
51660;SDS011;37741;49.748;8.490;2022-09-17T15:15:28;1.38;;;0.30;;
51660;SDS011;37741;49.748;8.490;2022-09-17T15:17:54;0.50;;;0.30;;
51660;SDS011;37741;49.748;8.490;2022-09-17T15:20:21;1.10;;;0.50;;
51660;SDS011;37741;49.748;8.490;2022-09-17T15:22:51;1.80;;;0.47;;
51660;SDS011;37741;49.748;8.490;2022-09-17T15:25:37;2.28;;;0.73;;
51660;SDS011;37741;49.748;8.490;2022-09-17T15:28:05;1.65;;;0.47;;
51660;SDS011;37741;49.748;8.490;2022-09-17T15:30:51;2.22;;;0.50;;
51660;SDS011;37741;49.748;8.490;2022-09-17T15:33:17;2.28;;;0.60;;
51660;SDS011;37741;49.748;8.490;2022-09-17T15:36:28;4.15;;;0.60;;
51660;SDS011;37741;49.748;8.490;2022-09-17T15:38:32;1.88;;;0.40;;
51660;SDS011;37741;49.748;8.490;2022-09-17T15:41:11;1.98;;;0.63;;
51660;SDS011;37741;49.748;8.490;2022-09-17T15:44:06;1.58;;;0.40;;
51660;SDS011;37741;49.748;8.490;2022-09-17T15:46:41;1.55;;;0.40;;
51660;SDS011;37741;49.748;8.490;2022-09-17T15:52:18;2.33;;;0.50;;
51660;SDS011;37741;49.748;8.490;2022-09-17T15:54:59;0.88;;;0.35;;
51660;SDS011;37741;49.748;8.490;2022-09-17T15:57:29;0.85;;;0.38;;
51660;SDS011;37741;49.748;8.490;2022-09-17T16:00:03;2.42;;;0.80;;
51660;SDS011;37741;49.748;8.490;2022-09-17T16:02:31;3.58;;;0.65;;
51660;SDS011;37741;49.748;8.490;2022-09-17T16:07:38;1.40;;;0.47;;
51660;SDS011;37741;49.748;8.490;2022-09-17T16:10:04;1.10;;;0.47;;
51660;SDS011;37741;49.748;8.490;2022-09-17T16:12:31;1.73;;;0.47;;
51660;SDS011;37741;49.748;8.490;2022-09-17T16:14:57;1.08;;;0.47;;
51660;SDS011;37741;49.748;8.490;2022-09-17T16:17:40;2.00;;;0.50;;
51660;SDS011;37741;49.748;8.490;2022-09-17T16:20:17;1.23;;;0.40;;
51660;SDS011;37741;49.748;8.490;2022-09-17T16:22:46;1.38;;;0.40;;
51660;SDS011;37741;49.748;8.490;2022-09-17T16:25:12;0.88;;;0.30;;
51660;SDS011;37741;49.748;8.490;2022-09-17T16:27:58;1.70;;;0.40;;
51660;SDS011;37741;49.748;8.490;2022-09-17T16:30:30;2.40;;;0.40;;
51660;SDS011;37741;49.748;8.490;2022-09-17T16:32:56;1.52;;;0.50;;
51660;SDS011;37741;49.748;8.490;2022-09-17T16:35:23;4.32;;;0.52;;
51660;SDS011;37741;49.748;8.490;2022-09-17T16:37:51;1.02;;;0.30;;
51660;SDS011;37741;49.748;8.490;2022-09-17T16:40:18;1.63;;;0.40;;
51660;SDS011;37741;49.748;8.490;2022-09-17T16:42:45;2.78;;;0.68;;
51660;SDS011;37741;49.748;8.490;2022-09-17T16:45:11;2.92;;;0.60;;
51660;SDS011;37741;49.748;8.490;2022-09-17T16:47:38;1.13;;;0.50;;
51660;SDS011;37741;49.748;8.490;2022-09-17T16:50:05;0.90;;;0.32;;
51660;SDS011;37741;49.748;8.490;2022-09-17T16:52:32;2.28;;;0.50;;
51660;SDS011;37741;49.748;8.490;2022-09-17T16:54:58;1.30;;;0.50;;
51660;SDS011;37741;49.748;8.490;2022-09-17T16:57:24;2.03;;;0.55;;
51660;SDS011;37741;49.748;8.490;2022-09-17T16:59:50;1.13;;;0.30;;
51660;SDS011;37741;49.748;8.490;2022-09-17T17:02:15;0.50;;;0.20;;
51660;SDS011;37741;49.748;8.490;2022-09-17T17:04:41;1.45;;;0.38;;
51660;SDS011;37741;49.748;8.490;2022-09-17T17:07:07;0.77;;;0.40;;
51660;SDS011;37741;49.748;8.490;2022-09-17T17:09:32;1.23;;;0.40;;
51660;SDS011;37741;49.748;8.490;2022-09-17T17:11:58;0.73;;;0.30;;
51660;SDS011;37741;49.748;8.490;2022-09-17T17:14:23;0.50;;;0.30;;
51660;SDS011;37741;49.748;8.490;2022-09-17T17:16:49;0.93;;;0.30;;
51660;SDS011;37741;49.748;8.490;2022-09-17T17:19:14;1.27;;;0.40;;
51660;SDS011;37741;49.748;8.490;2022-09-17T17:21:41;1.08;;;0.40;;
51660;SDS011;37741;49.748;8.490;2022-09-17T17:24:07;0.68;;;0.28;;
51660;SDS011;37741;49.748;8.490;2022-09-17T17:26:33;1.38;;;0.30;;
51660;SDS011;37741;49.748;8.490;2022-09-17T17:28:58;1.58;;;0.40;;
51660;SDS011;37741;49.748;8.490;2022-09-17T17:31:25;1.10;;;0.40;;
51660;SDS011;37741;49.748;8.490;2022-09-17T17:33:50;1.15;;;0.52;;
51660;SDS011;37741;49.748;8.490;2022-09-17T17:36:16;0.38;;;0.20;;
51660;SDS011;37741;49.748;8.490;2022-09-17T17:38:42;0.68;;;0.25;;
51660;SDS011;37741;49.748;8.490;2022-09-17T17:41:08;1.90;;;0.25;;
51660;SDS011;37741;49.748;8.490;2022-09-17T17:43:35;0.70;;;0.28;;
51660;SDS011;37741;49.748;8.490;2022-09-17T17:46:04;1.13;;;0.35;;
51660;SDS011;37741;49.748;8.490;2022-09-17T17:48:30;1.02;;;0.28;;
51660;SDS011;37741;49.748;8.490;2022-09-17T17:51:06;0.47;;;0.30;;
51660;SDS011;37741;49.748;8.490;2022-09-17T17:53:33;2.90;;;0.40;;
51660;SDS011;37741;49.748;8.490;2022-09-17T17:56:00;0.52;;;0.32;;
51660;SDS011;37741;49.748;8.490;2022-09-17T17:58:28;0.82;;;0.30;;
51660;SDS011;37741;49.748;8.490;2022-09-17T18:00:54;3.10;;;0.30;;
51660;SDS011;37741;49.748;8.490;2022-09-17T18:03:20;2.83;;;0.47;;
51660;SDS011;37741;49.748;8.490;2022-09-17T18:05:49;1.92;;;0.30;;
51660;SDS011;37741;49.748;8.490;2022-09-17T18:08:20;1.42;;;0.38;;
51660;SDS011;37741;49.748;8.490;2022-09-17T18:10:51;0.70;;;0.30;;
51660;SDS011;37741;49.748;8.490;2022-09-17T18:13:18;1.08;;;0.40;;
51660;SDS011;37741;49.748;8.490;2022-09-17T18:15:54;2.28;;;0.70;;
51660;SDS011;37741;49.748;8.490;2022-09-17T18:18:22;1.17;;;0.40;;
51660;SDS011;37741;49.748;8.490;2022-09-17T18:20:49;0.65;;;0.28;;
51660;SDS011;37741;49.748;8.490;2022-09-17T18:23:17;1.90;;;0.50;;
51660;SDS011;37741;49.748;8.490;2022-09-17T18:25:50;1.90;;;0.47;;
51660;SDS011;37741;49.748;8.490;2022-09-17T18:28:20;1.52;;;0.50;;
51660;SDS011;37741;49.748;8.490;2022-09-17T18:30:46;1.35;;;0.45;;
51660;SDS011;37741;49.748;8.490;2022-09-17T18:33:17;1.80;;;0.35;;
51660;SDS011;37741;49.748;8.490;2022-09-17T18:35:44;1.13;;;0.50;;
51660;SDS011;37741;49.748;8.490;2022-09-17T18:38:10;2.70;;;1.20;;
51660;SDS011;37741;49.748;8.490;2022-09-17T18:40:36;1.92;;;0.70;;
51660;SDS011;37741;49.748;8.490;2022-09-17T18:43:01;1.45;;;0.40;;
51660;SDS011;37741;49.748;8.490;2022-09-17T18:45:27;2.10;;;0.50;;
51660;SDS011;37741;49.748;8.490;2022-09-17T18:47:53;1.67;;;0.35;;
51660;SDS011;37741;49.748;8.490;2022-09-17T18:50:18;2.33;;;0.50;;
51660;SDS011;37741;49.748;8.490;2022-09-17T18:52:44;4.00;;;0.80;;
51660;SDS011;37741;49.748;8.490;2022-09-17T18:55:10;1.52;;;0.50;;
51660;SDS011;37741;49.748;8.490;2022-09-17T18:57:35;0.93;;;0.30;;
51660;SDS011;37741;49.748;8.490;2022-09-17T19:00:01;1.77;;;0.55;;
51660;SDS011;37741;49.748;8.490;2022-09-17T19:02:31;1.17;;;0.40;;